createdAt,value
2023-10-20T00:02:26.659Z,32.50
2023-10-20T00:04:53.404Z,33.53
2023-10-20T00:07:22.592Z,36.10
2023-10-20T00:09:50.828Z,33.97
2023-10-20T00:12:17.718Z,36.67
2023-10-20T00:14:44.467Z,35.53
2023-10-20T00:17:11.298Z,35.47
2023-10-20T00:19:38.153Z,36.38
2023-10-20T00:22:04.998Z,35.92
2023-10-20T00:24:32.361Z,34.75
2023-10-20T00:26:59.172Z,34.60
2023-10-20T00:29:26.517Z,33.00
2023-10-20T00:31:53.348Z,34.47
2023-10-20T00:34:20.114Z,35.38
2023-10-20T00:36:46.968Z,34.45
2023-10-20T00:39:13.920Z,33.60
2023-10-20T00:41:40.700Z,33.88
2023-10-20T00:44:07.407Z,34.15
2023-10-20T00:46:35.353Z,34.55
2023-10-20T00:49:03.260Z,33.50
2023-10-20T00:51:30.451Z,32.17
2023-10-20T00:54:00.044Z,33.00
2023-10-20T00:56:28.385Z,33.53
2023-10-20T00:58:55.576Z,31.88
2023-10-20T01:01:22.363Z,31.98
2023-10-20T01:03:50.223Z,31.48
2023-10-20T01:06:17.109Z,31.55
2023-10-20T01:08:43.821Z,31.65
2023-10-20T01:11:10.575Z,31.40
2023-10-20T01:13:37.520Z,31.88
2023-10-20T01:16:04.686Z,31.67
2023-10-20T01:18:31.711Z,30.77
2023-10-20T01:20:58.615Z,30.15
2023-10-20T01:23:25.328Z,30.75
2023-10-20T01:25:54.256Z,30.38
2023-10-20T01:28:21.070Z,30.05
2023-10-20T01:30:50.636Z,29.27
2023-10-20T01:33:17.484Z,29.27
2023-10-20T01:35:44.291Z,30.38
2023-10-20T01:38:10.994Z,29.75
2023-10-20T01:40:37.734Z,30.55
2023-10-20T01:43:04.571Z,28.63
2023-10-20T01:45:31.248Z,28.38
2023-10-20T01:47:58.046Z,29.05
2023-10-20T01:50:26.116Z,28.10
2023-10-20T01:52:52.896Z,29.10
2023-10-20T01:55:19.817Z,29.75
2023-10-20T01:57:46.600Z,31.00
2023-10-20T02:00:18.128Z,30.50
2023-10-20T02:02:45.194Z,29.80
2023-10-20T02:05:13.494Z,29.83
2023-10-20T02:07:40.629Z,30.23
2023-10-20T02:10:08.137Z,30.88
2023-10-20T02:12:35.561Z,30.15
2023-10-20T02:15:02.401Z,29.63
2023-10-20T02:17:29.155Z,29.90
2023-10-20T02:19:55.888Z,28.05
2023-10-20T02:22:22.617Z,29.40
2023-10-20T02:24:49.291Z,30.55
2023-10-20T02:27:16.040Z,28.67
2023-10-20T02:29:43.340Z,29.67
2023-10-20T02:32:10.125Z,29.27
2023-10-20T02:34:36.888Z,27.38
2023-10-20T02:37:04.118Z,28.00
2023-10-20T02:39:30.949Z,29.48
2023-10-20T02:41:57.694Z,30.55
2023-10-20T02:44:28.486Z,28.90
2023-10-20T02:46:55.697Z,29.65
2023-10-20T02:49:22.532Z,30.23
2023-10-20T02:51:49.430Z,29.48
2023-10-20T02:54:16.145Z,29.15
2023-10-20T02:56:42.895Z,28.25
2023-10-20T02:59:09.663Z,29.25
2023-10-20T03:01:37.317Z,29.27
2023-10-20T03:04:04.248Z,29.70
2023-10-20T03:06:31.015Z,27.27
2023-10-20T03:08:57.712Z,28.05
2023-10-20T03:11:24.543Z,28.48
2023-10-20T03:13:51.714Z,28.10
2023-10-20T03:16:18.972Z,28.02
2023-10-20T03:18:45.724Z,28.20
2023-10-20T03:21:12.422Z,28.20
2023-10-20T03:23:42.039Z,27.20
2023-10-20T03:26:13.301Z,27.83
2023-10-20T03:28:40.899Z,28.77
2023-10-20T03:31:08.385Z,27.15
2023-10-20T03:33:35.152Z,27.52
2023-10-20T03:36:04.528Z,27.65
2023-10-20T03:38:32.152Z,25.83
2023-10-20T03:41:10.633Z,26.13
2023-10-20T03:46:07.927Z,25.77
2023-10-20T03:48:36.093Z,26.15
2023-10-20T03:51:06.712Z,26.50
2023-10-20T03:53:51.766Z,26.75
2023-10-20T03:56:20.632Z,25.98
2023-10-20T03:58:48.105Z,26.02
2023-10-20T04:01:15.299Z,26.00
2023-10-20T04:03:44.612Z,26.98
2023-10-20T04:06:12.794Z,24.67
2023-10-20T04:08:39.816Z,26.98
2023-10-20T04:11:06.647Z,24.60
2023-10-20T04:13:33.578Z,26.45
2023-10-20T04:16:13.480Z,26.58
2023-10-20T04:18:41.746Z,26.58
2023-10-20T04:21:08.676Z,25.70
2023-10-20T04:23:35.486Z,26.83
2023-10-20T04:26:03.911Z,27.48
2023-10-20T04:28:44.131Z,26.02
2023-10-20T04:31:32.195Z,26.65
2023-10-20T04:34:18.195Z,27.90
2023-10-20T04:37:03.622Z,28.98
2023-10-20T04:39:49.277Z,27.83
2023-10-20T04:42:18.682Z,29.13
2023-10-20T04:44:51.233Z,29.73
2023-10-20T04:47:27.006Z,30.55
2023-10-20T04:50:00.152Z,30.90
2023-10-20T04:52:45.424Z,29.85
2023-10-20T04:55:24.288Z,30.75
2023-10-20T04:57:54.291Z,29.48
2023-10-20T05:00:33.546Z,29.85
2023-10-20T05:03:03.305Z,29.77
2023-10-20T05:05:40.738Z,26.92
2023-10-20T05:08:13.602Z,28.23
2023-10-20T05:10:43.220Z,28.15
2023-10-20T05:13:10.891Z,25.88
2023-10-20T05:15:41.616Z,26.63
2023-10-20T05:18:16.068Z,26.45
2023-10-20T05:20:47.392Z,26.52
2023-10-20T05:23:17.209Z,26.63
2023-10-20T05:25:50.735Z,25.70
2023-10-20T05:28:17.831Z,26.20
2023-10-20T05:30:46.178Z,23.95
2023-10-20T05:33:14.208Z,23.45
2023-10-20T05:35:41.922Z,23.95
2023-10-20T05:38:09.239Z,22.63
2023-10-20T05:40:37.163Z,22.15
2023-10-20T05:43:06.704Z,21.40
2023-10-20T05:45:52.039Z,20.48
2023-10-20T05:48:20.280Z,19.55
2023-10-20T05:50:47.116Z,19.48
2023-10-20T05:53:14.155Z,20.10
2023-10-20T05:55:40.953Z,19.40
2023-10-20T05:58:07.698Z,20.52
2023-10-20T06:00:49.221Z,19.25
2023-10-20T06:03:23.347Z,17.17
2023-10-20T06:05:50.259Z,15.65
2023-10-20T06:08:17.360Z,15.50
2023-10-20T06:10:45.653Z,15.32
2023-10-20T06:13:14.747Z,15.27
2023-10-20T06:15:41.421Z,14.80
2023-10-20T06:18:11.809Z,12.57
2023-10-20T06:20:42.919Z,11.70
2023-10-20T06:23:09.680Z,12.55
2023-10-20T06:25:37.016Z,12.00
2023-10-20T06:28:05.671Z,12.00
2023-10-20T06:30:32.387Z,11.52
2023-10-20T06:33:14.300Z,10.82
2023-10-20T06:35:53.351Z,10.40
2023-10-20T06:38:31.347Z,9.98
2023-10-20T06:40:58.653Z,10.98
2023-10-20T06:43:26.023Z,11.40
2023-10-20T06:46:00.630Z,12.25
2023-10-20T06:48:29.253Z,12.27
2023-10-20T06:53:23.012Z,11.60
2023-10-20T06:56:09.885Z,12.27
2023-10-20T06:58:39.066Z,13.05
2023-10-20T07:01:09.214Z,14.38
2023-10-20T07:03:36.258Z,13.77
2023-10-20T07:06:08.365Z,15.65
2023-10-20T07:08:36.472Z,14.90
2023-10-20T07:11:05.052Z,13.80
2023-10-20T07:15:59.937Z,15.57
2023-10-20T07:18:27.593Z,14.93
2023-10-20T07:20:57.756Z,14.97
2023-10-20T07:23:25.636Z,15.40
2023-10-20T07:25:52.417Z,13.85
2023-10-20T07:28:19.125Z,14.60
2023-10-20T07:30:46.657Z,14.32
2023-10-20T07:33:13.534Z,13.48
2023-10-20T07:35:40.494Z,12.68
2023-10-20T07:38:09.223Z,12.43
2023-10-20T07:43:07.302Z,12.55
2023-10-20T07:45:44.310Z,11.90
2023-10-20T07:48:12.183Z,11.38
2023-10-20T07:50:39.325Z,12.20
2023-10-20T07:53:06.536Z,11.82
2023-10-20T07:55:33.307Z,12.10
2023-10-20T07:58:00.031Z,11.15
2023-10-20T08:00:26.717Z,11.10
2023-10-20T08:02:55.470Z,11.25
2023-10-20T08:05:28.258Z,10.27
2023-10-20T08:07:56.180Z,9.13
2023-10-20T08:10:23.326Z,8.30
2023-10-20T08:12:50.485Z,8.95
2023-10-20T08:15:17.688Z,9.65
2023-10-20T08:17:46.788Z,8.80
2023-10-20T08:20:14.990Z,7.80
2023-10-20T08:22:41.779Z,8.43
2023-10-20T08:25:10.121Z,7.47
2023-10-20T08:27:37.853Z,6.78
2023-10-20T08:30:06.192Z,6.43
2023-10-20T08:32:35.785Z,5.05
2023-10-20T08:35:02.522Z,5.97
2023-10-20T08:37:29.678Z,5.85
2023-10-20T08:39:56.472Z,5.68
2023-10-20T08:42:23.292Z,5.88
2023-10-20T08:44:51.282Z,5.88
2023-10-20T08:47:20.646Z,4.80
2023-10-20T08:49:48.223Z,4.28
2023-10-20T08:52:15.188Z,4.57
2023-10-20T08:54:42.312Z,4.75
2023-10-20T08:57:09.507Z,4.05
2023-10-20T08:59:37.953Z,3.83
2023-10-20T09:02:05.369Z,3.15
2023-10-20T09:04:35.542Z,3.20
2023-10-20T09:07:13.221Z,3.75
2023-10-20T09:09:41.994Z,3.70
2023-10-20T09:12:10.125Z,3.45
2023-10-20T09:14:43.261Z,3.30
2023-10-20T09:17:21.153Z,3.30
2023-10-20T09:19:48.470Z,3.38
2023-10-20T09:22:15.553Z,2.90
2023-10-20T09:24:43.063Z,2.90
2023-10-20T09:27:10.281Z,2.50
2023-10-20T09:29:38.512Z,2.55
2023-10-20T09:32:06.299Z,2.40
2023-10-20T09:34:33.623Z,2.60
2023-10-20T09:37:01.871Z,2.50
2023-10-20T09:39:39.535Z,2.50
2023-10-20T09:42:08.231Z,2.43
2023-10-20T09:47:31.912Z,1.45
2023-10-20T09:49:59.795Z,1.58
2023-10-20T09:52:28.141Z,1.80
2023-10-20T09:54:57.446Z,1.70
2023-10-20T09:57:24.854Z,1.70
2023-10-20T09:59:55.466Z,2.00
2023-10-20T10:02:29.691Z,1.50
2023-10-20T10:05:01.448Z,2.00
2023-10-20T10:07:29.974Z,1.85
2023-10-20T10:09:58.165Z,1.40
2023-10-20T10:12:26.113Z,1.90
2023-10-20T10:15:00.507Z,1.20
2023-10-20T10:17:29.088Z,1.15
2023-10-20T10:22:31.468Z,1.10
2023-10-20T10:25:01.761Z,1.20
2023-10-20T10:27:29.497Z,1.08
2023-10-20T10:30:01.964Z,1.27
2023-10-20T10:32:35.177Z,0.88
2023-10-20T10:35:05.025Z,0.85
2023-10-20T10:37:36.521Z,0.70
2023-10-20T10:40:14.837Z,0.90
2023-10-20T10:42:46.503Z,0.60
2023-10-20T10:45:24.576Z,0.70
2023-10-20T10:47:52.766Z,0.80
2023-10-20T10:50:22.075Z,0.98
2023-10-20T10:52:51.903Z,0.70
2023-10-20T10:55:19.760Z,0.82
2023-10-20T10:57:47.828Z,0.68
2023-10-20T11:00:17.234Z,0.70
2023-10-20T11:02:46.082Z,0.60
2023-10-20T11:05:13.912Z,0.98
2023-10-20T11:07:41.484Z,0.60
2023-10-20T11:10:09.786Z,0.70
2023-10-20T11:12:36.842Z,0.60
2023-10-20T11:15:07.545Z,0.70
2023-10-20T11:17:34.431Z,0.68
2023-10-20T11:20:01.248Z,0.60
2023-10-20T11:22:28.015Z,0.50
2023-10-20T11:24:55.069Z,0.50
2023-10-20T11:27:21.862Z,0.80
2023-10-20T11:29:58.967Z,0.70
2023-10-20T11:32:27.185Z,0.57
2023-10-20T11:34:54.267Z,0.73
2023-10-20T11:37:20.983Z,0.80
2023-10-20T11:39:48.166Z,0.70
2023-10-20T11:42:15.164Z,0.80
2023-10-20T11:44:41.894Z,0.90
2023-10-20T11:47:08.674Z,0.60
2023-10-20T11:49:35.354Z,0.60
2023-10-20T11:52:03.694Z,0.60
2023-10-20T11:54:33.013Z,0.93
2023-10-20T11:57:00.233Z,0.60
2023-10-20T11:59:27.082Z,0.63
2023-10-20T12:01:53.926Z,0.70
2023-10-20T12:04:21.858Z,0.60
2023-10-20T12:06:49.749Z,0.73
2023-10-20T12:09:20.750Z,0.63
2023-10-20T12:11:47.573Z,0.50
2023-10-20T12:14:16.097Z,0.68
2023-10-20T12:16:43.485Z,0.63
2023-10-20T12:19:10.327Z,0.65
2023-10-20T12:21:37.135Z,0.50
2023-10-20T12:24:04.753Z,0.70
2023-10-20T12:26:31.557Z,0.60
2023-10-20T12:28:58.359Z,0.40
2023-10-20T12:31:29.630Z,0.52
2023-10-20T12:33:56.445Z,0.50
2023-10-20T12:36:23.211Z,0.65
2023-10-20T12:38:49.968Z,0.40
2023-10-20T12:41:17.442Z,0.60
2023-10-20T12:43:45.615Z,0.52
2023-10-20T12:46:15.438Z,0.50
2023-10-20T12:48:42.378Z,0.47
2023-10-20T12:51:10.242Z,0.50
2023-10-20T12:53:37.722Z,0.63
2023-10-20T12:56:06.245Z,0.70
2023-10-20T12:58:33.968Z,0.50
2023-10-20T13:01:00.722Z,0.60
2023-10-20T13:03:28.248Z,0.70
2023-10-20T13:05:55.924Z,0.60
2023-10-20T13:08:25.196Z,0.52
2023-10-20T13:10:52.821Z,0.60
2023-10-20T13:13:20.060Z,0.60
2023-10-20T13:15:47.073Z,0.80
2023-10-20T13:18:14.370Z,0.60
2023-10-20T13:20:41.926Z,0.70
2023-10-20T13:23:08.844Z,0.90
2023-10-20T13:25:36.224Z,0.70
2023-10-20T13:28:05.214Z,0.57
2023-10-20T13:30:32.988Z,0.63
2023-10-20T13:33:00.929Z,0.70
2023-10-20T13:35:27.781Z,0.90
2023-10-20T13:37:54.535Z,0.65
2023-10-20T13:40:21.331Z,0.70
2023-10-20T13:42:48.249Z,0.80
2023-10-20T13:45:14.997Z,1.48
2023-10-20T13:47:43.940Z,1.00
2023-10-20T13:50:13.516Z,0.50
2023-10-20T13:52:40.194Z,0.73
2023-10-20T13:55:07.988Z,0.70
2023-10-20T13:57:34.730Z,0.97
2023-10-20T14:00:01.549Z,0.90
2023-10-20T14:02:29.487Z,0.70
2023-10-20T14:04:56.381Z,0.90
2023-10-20T14:07:23.126Z,0.68
2023-10-20T14:09:49.953Z,0.90
2023-10-20T14:12:16.755Z,0.68
2023-10-20T14:14:44.113Z,0.60
2023-10-20T14:17:10.985Z,0.75
2023-10-20T14:19:37.908Z,0.55
2023-10-20T14:22:05.657Z,0.60
2023-10-20T14:24:32.339Z,0.70
2023-10-20T14:27:00.131Z,0.57
2023-10-20T14:29:27.385Z,0.60
2023-10-20T14:31:56.258Z,0.75
2023-10-20T14:34:23.655Z,0.40
2023-10-20T14:36:50.800Z,0.60
2023-10-20T14:39:18.679Z,0.98
2023-10-20T14:41:46.048Z,0.75
2023-10-20T14:44:13.255Z,0.35
2023-10-20T14:46:41.242Z,0.30
2023-10-20T14:49:08.435Z,0.45
2023-10-20T14:51:35.568Z,0.30
2023-10-20T14:54:02.766Z,0.43
2023-10-20T14:56:30.226Z,0.50
2023-10-20T14:59:01.047Z,3.10
2023-10-20T15:01:28.356Z,2.50
2023-10-20T15:03:55.735Z,2.58
2023-10-20T15:06:22.931Z,1.10
2023-10-20T15:08:50.328Z,0.77
2023-10-20T15:11:18.937Z,1.30
2023-10-20T15:13:46.052Z,2.08
2023-10-20T15:16:16.302Z,1.90
2023-10-20T15:18:43.677Z,1.10
2023-10-20T15:21:11.140Z,2.15
2023-10-20T15:23:38.336Z,1.15
2023-10-20T15:26:08.358Z,1.60
2023-10-20T15:28:39.318Z,1.73
2023-10-20T15:31:10.412Z,1.20
2023-10-20T15:33:38.435Z,0.88
2023-10-20T15:36:09.410Z,0.95
2023-10-20T15:38:37.444Z,0.98
2023-10-20T15:41:05.956Z,1.35
2023-10-20T15:43:33.773Z,1.08
2023-10-20T15:46:01.505Z,1.10
2023-10-20T15:48:29.036Z,0.80
2023-10-20T15:50:56.339Z,1.13
2023-10-20T15:53:23.107Z,1.45
2023-10-20T15:55:53.823Z,1.70
2023-10-20T15:58:20.705Z,1.55
2023-10-20T16:00:47.827Z,2.10
2023-10-20T16:03:17.391Z,2.17
2023-10-20T16:05:45.715Z,2.40
2023-10-20T16:08:12.396Z,2.50
2023-10-20T16:10:39.186Z,2.75
2023-10-20T16:13:05.960Z,2.60
2023-10-20T16:15:33.622Z,2.10
2023-10-20T16:18:00.908Z,1.60
2023-10-20T16:20:27.792Z,1.80
2023-10-20T16:22:54.516Z,1.98
2023-10-20T16:25:22.277Z,1.70
2023-10-20T16:27:49.846Z,1.67
2023-10-20T16:30:16.598Z,1.95
2023-10-20T16:32:43.386Z,3.33
2023-10-20T16:35:10.771Z,3.70
2023-10-20T16:37:38.890Z,2.90
2023-10-20T16:40:07.369Z,4.82
2023-10-20T16:42:34.367Z,4.90
2023-10-20T16:45:03.169Z,4.30
2023-10-20T16:47:31.262Z,4.25
2023-10-20T16:49:58.002Z,2.95
2023-10-20T16:52:24.695Z,3.90
2023-10-20T16:54:54.448Z,4.80
2023-10-20T16:57:21.164Z,4.72
2023-10-20T16:59:49.006Z,5.40
2023-10-20T17:02:16.257Z,4.40
2023-10-20T17:04:45.126Z,4.35
2023-10-20T17:07:11.806Z,4.22
2023-10-20T17:09:38.611Z,3.83
2023-10-20T17:12:05.593Z,4.32
2023-10-20T17:14:33.895Z,5.85
2023-10-20T17:17:02.939Z,5.80
2023-10-20T17:19:29.599Z,6.28
2023-10-20T17:21:57.407Z,6.18
2023-10-20T17:24:26.564Z,6.30
2023-10-20T17:26:53.422Z,6.38
2023-10-20T17:29:20.189Z,7.80
2023-10-20T17:31:46.929Z,7.13
2023-10-20T17:34:14.351Z,7.47
2023-10-20T17:36:41.089Z,8.18
2023-10-20T17:39:08.649Z,7.55
2023-10-20T17:41:35.677Z,8.95
2023-10-20T17:44:02.497Z,8.65
2023-10-20T17:46:29.322Z,10.77
2023-10-20T17:48:56.207Z,11.27
2023-10-20T17:51:23.641Z,11.57
2023-10-20T17:53:50.589Z,16.58
2023-10-20T17:56:17.963Z,17.38
2023-10-20T17:58:44.718Z,20.50
2023-10-20T18:01:12.225Z,19.13
2023-10-20T18:03:41.125Z,22.10
2023-10-20T18:06:16.895Z,23.40
2023-10-20T18:08:49.158Z,26.23
2023-10-20T18:11:17.587Z,28.17
2023-10-20T18:13:46.284Z,28.40
2023-10-20T18:16:17.992Z,29.60
2023-10-20T18:18:49.463Z,30.98
2023-10-20T18:21:19.134Z,32.05
2023-10-20T18:23:47.848Z,31.17
2023-10-20T18:26:14.969Z,34.58
2023-10-20T18:28:42.111Z,34.05
2023-10-20T18:31:17.224Z,32.45
2023-10-20T18:33:46.674Z,35.63
2023-10-20T18:36:13.718Z,35.65
2023-10-20T18:38:41.747Z,35.28
2023-10-20T18:41:16.017Z,35.90
2023-10-20T18:43:43.697Z,35.53
2023-10-20T18:46:10.782Z,37.03
2023-10-20T18:48:37.953Z,36.10
2023-10-20T18:51:09.327Z,38.35
2023-10-20T18:53:36.340Z,32.03
2023-10-20T18:56:04.664Z,33.30
2023-10-20T18:58:31.775Z,35.25
2023-10-20T19:00:59.879Z,33.95
2023-10-20T19:03:27.451Z,34.45
2023-10-20T19:05:54.476Z,34.40
2023-10-20T19:08:21.421Z,35.20
2023-10-20T19:10:48.721Z,36.83
2023-10-20T19:13:18.625Z,33.70
2023-10-20T19:15:45.327Z,33.13
2023-10-20T19:18:12.198Z,27.27
2023-10-20T19:20:39.198Z,31.85
2023-10-20T19:23:08.527Z,30.80
2023-10-20T19:25:36.750Z,30.15
2023-10-20T19:28:05.053Z,29.00
2023-10-20T19:30:35.424Z,29.63
2023-10-20T19:33:02.334Z,29.50
2023-10-20T19:35:29.424Z,29.08
2023-10-20T19:37:57.128Z,27.08
2023-10-20T19:40:23.897Z,27.20
2023-10-20T19:42:50.613Z,24.13
2023-10-20T19:45:17.503Z,25.83
2023-10-20T19:47:45.727Z,24.90
2023-10-20T19:50:12.474Z,25.48
2023-10-20T19:52:39.470Z,24.48
2023-10-20T19:55:06.601Z,24.17
2023-10-20T19:57:33.327Z,24.05
2023-10-20T20:00:00.097Z,25.05
2023-10-20T20:02:27.475Z,23.40
2023-10-20T20:04:54.788Z,22.55
2023-10-20T20:07:22.009Z,22.70
2023-10-20T20:09:49.202Z,23.13
2023-10-20T20:12:16.396Z,20.92
2023-10-20T20:14:43.617Z,22.13
2023-10-20T20:17:10.320Z,20.85
2023-10-20T20:19:37.445Z,19.65
2023-10-20T20:22:04.316Z,20.02
2023-10-20T20:24:32.083Z,21.67
2023-10-20T20:27:01.101Z,19.87
2023-10-20T20:29:28.533Z,19.75
2023-10-20T20:31:55.264Z,19.13
2023-10-20T20:34:21.982Z,19.98
2023-10-20T20:36:48.764Z,19.63
2023-10-20T20:39:15.702Z,18.17
2023-10-20T20:41:42.578Z,20.73
2023-10-20T20:44:09.408Z,19.80
2023-10-20T20:46:36.363Z,19.92
2023-10-20T20:49:03.132Z,19.60
2023-10-20T20:51:30.034Z,19.65
2023-10-20T20:53:56.887Z,17.90
2023-10-20T20:56:23.770Z,18.83
2023-10-20T20:59:01.775Z,20.13
2023-10-20T21:01:28.914Z,19.63
2023-10-20T21:04:01.594Z,16.08
2023-10-20T21:06:28.636Z,15.27
2023-10-20T21:08:58.044Z,17.35
2023-10-20T21:11:24.871Z,16.60
2023-10-20T21:13:52.423Z,14.43
2023-10-20T21:16:19.316Z,15.75
2023-10-20T21:18:46.285Z,14.77
2023-10-20T21:21:17.593Z,14.48
2023-10-20T21:23:47.359Z,13.23
2023-10-20T21:26:14.697Z,13.15
2023-10-20T21:28:41.880Z,13.45
2023-10-20T21:31:09.147Z,12.52
2023-10-20T21:33:36.398Z,13.38
2023-10-20T21:36:04.193Z,12.40
2023-10-20T21:38:30.997Z,14.57
2023-10-20T21:40:58.797Z,12.05
2023-10-20T21:43:25.805Z,11.90
2023-10-20T21:45:57.538Z,13.25
2023-10-20T21:48:25.336Z,12.63
2023-10-20T21:50:59.555Z,11.95
2023-10-20T21:53:27.210Z,11.45
2023-10-20T21:56:07.787Z,11.07
2023-10-20T21:58:38.128Z,10.68
2023-10-20T22:01:10.149Z,10.30
2023-10-20T22:03:39.310Z,10.30
2023-10-20T22:06:10.111Z,10.05
2023-10-20T22:08:37.145Z,10.57
2023-10-20T22:11:04.220Z,10.48
2023-10-20T22:13:31.466Z,9.90
2023-10-20T22:15:58.743Z,10.35
2023-10-20T22:18:25.736Z,9.18
2023-10-20T22:20:52.571Z,9.82
2023-10-20T22:23:19.659Z,8.20
2023-10-20T22:25:46.552Z,8.68
2023-10-20T22:28:13.215Z,8.80
2023-10-20T22:30:41.400Z,8.23
2023-10-20T22:33:09.269Z,7.22
2023-10-20T22:35:36.062Z,8.00
2023-10-20T22:38:02.876Z,7.65
2023-10-20T22:40:29.740Z,6.78
2023-10-20T22:42:56.750Z,7.28
2023-10-20T22:45:23.478Z,7.28
2023-10-20T22:47:50.243Z,6.80
2023-10-20T22:50:20.496Z,7.10
2023-10-20T22:52:50.210Z,5.85
2023-10-20T22:55:16.993Z,6.45
2023-10-20T22:57:46.159Z,6.75
2023-10-20T23:00:13.805Z,5.85
2023-10-20T23:02:41.213Z,6.30
2023-10-20T23:05:09.322Z,6.15
2023-10-20T23:07:36.314Z,6.78
2023-10-20T23:10:04.534Z,5.70
2023-10-20T23:12:32.761Z,5.13
2023-10-20T23:14:59.842Z,5.85
2023-10-20T23:17:27.180Z,5.78
2023-10-20T23:19:55.346Z,5.18
2023-10-20T23:22:22.083Z,4.55
2023-10-20T23:24:48.904Z,5.35
2023-10-20T23:27:15.699Z,5.65
2023-10-20T23:29:42.475Z,4.70
2023-10-20T23:32:09.935Z,5.07
2023-10-20T23:34:36.926Z,4.95
2023-10-20T23:37:04.502Z,4.78
2023-10-20T23:39:34.052Z,5.07
2023-10-20T23:42:02.755Z,4.00
2023-10-20T23:44:30.909Z,4.45
2023-10-20T23:46:58.148Z,4.90
2023-10-20T23:49:25.350Z,4.45
2023-10-20T23:51:52.886Z,4.45
2023-10-20T23:54:20.245Z,3.30
2023-10-20T23:56:47.498Z,3.95
2023-10-20T23:59:14.339Z,4.53
